Time;durP1;ratioP1;P1;durP2;ratioP2;P2;SDS_P1;SDS_P2;PMS_P1;PMS_P2;Temp;Humidity;BMP_temperature;BMP_pressure;BME280_temperature;BME280_humidity;BME280_pressure;Samples;Min_cycle;Max_cycle;Signal;HPM_P1;HPM_P2
2021/07/20 00:00:35;;;;;;;11.40;8.17;;;15.60;99.90;;;;;;5074949;28;20415;-84
2021/07/20 00:03:02;;;;;;;11.40;9.20;;;15.60;99.90;;;;;;5082604;28;20418;-80
2021/07/20 00:05:29;;;;;;;13.10;8.60;;;15.50;99.90;;;;;;5082163;28;20212;-82
2021/07/20 00:07:58;;;;;;;12.23;9.83;;;15.40;99.90;;;;;;5081610;28;20859;-82
2021/07/20 00:10:42;;;;;;;12.70;9.13;;;15.40;99.90;;;;;;5077856;28;20474;-81
2021/07/20 00:13:08;;;;;;;12.10;9.30;;;15.40;99.90;;;;;;5092266;28;20478;-84
2021/07/20 00:15:35;;;;;;;12.37;9.37;;;15.30;99.90;;;;;;5089450;28;20434;-81
2021/07/20 00:18:07;;;;;;;10.60;9.10;;;15.30;99.90;;;;;;5062689;28;20443;-80
2021/07/20 00:20:33;;;;;;;13.27;9.23;;;15.30;99.90;;;;;;5094536;28;20423;-82
2021/07/20 00:22:58;;;;;;;12.87;9.80;;;15.30;99.90;;;;;;5081073;28;20987;-82
2021/07/20 00:25:24;;;;;;;13.17;9.57;;;15.40;99.90;;;;;;5098116;28;20266;-80
2021/07/20 00:27:50;;;;;;;13.47;9.33;;;15.30;99.90;;;;;;5094144;28;20778;-81
2021/07/20 00:30:16;;;;;;;14.07;11.00;;;15.40;99.90;;;;;;5065667;28;20203;-83
2021/07/20 00:32:43;;;;;;;12.90;9.50;;;15.40;99.90;;;;;;5057820;28;20209;-83
2021/07/20 00:35:11;;;;;;;12.83;9.17;;;15.30;99.90;;;;;;5077158;28;20511;-80
2021/07/20 00:37:39;;;;;;;13.60;9.40;;;15.30;99.90;;;;;;5096226;28;21064;-81
2021/07/20 00:40:11;;;;;;;13.83;9.70;;;15.30;99.90;;;;;;5077515;28;20419;-82
2021/07/20 00:42:37;;;;;;;11.47;9.10;;;15.30;99.90;;;;;;5094273;28;20426;-81
2021/07/20 00:45:06;;;;;;;14.23;9.50;;;15.20;99.90;;;;;;5046993;28;20479;-82
2021/07/20 00:47:32;;;;;;;15.17;10.50;;;15.20;99.90;;;;;;5078532;28;20415;-81
2021/07/20 00:49:58;;;;;;;11.50;9.30;;;15.20;99.90;;;;;;5096107;28;20966;-80
2021/07/20 00:52:23;;;;;;;10.70;8.50;;;15.00;99.90;;;;;;5086676;28;20209;-82
2021/07/20 00:54:49;;;;;;;13.23;10.43;;;15.00;99.90;;;;;;5096268;28;20224;-80
2021/07/20 00:57:15;;;;;;;13.90;9.67;;;15.00;99.90;;;;;;5098454;28;20210;-82
2021/07/20 00:59:41;;;;;;;11.83;9.10;;;14.90;99.90;;;;;;5079049;28;20427;-80
2021/07/20 01:02:07;;;;;;;12.93;9.70;;;14.80;99.90;;;;;;5095101;28;20196;-81
2021/07/20 01:04:33;;;;;;;11.40;9.33;;;14.80;99.90;;;;;;5084677;28;20487;-81
2021/07/20 01:07:00;;;;;;;11.77;8.93;;;14.70;99.90;;;;;;5102947;28;20173;-80
2021/07/20 01:09:27;;;;;;;10.50;8.87;;;14.70;99.90;;;;;;5067812;28;20429;-82
2021/07/20 01:11:54;;;;;;;10.57;9.37;;;14.60;99.90;;;;;;5091813;28;20453;-81
2021/07/20 01:14:20;;;;;;;13.80;10.13;;;14.60;99.90;;;;;;5079489;28;20828;-81
2021/07/20 01:16:47;;;;;;;16.63;9.60;;;14.60;99.90;;;;;;5100308;28;20421;-82
2021/07/20 01:19:15;;;;;;;13.50;10.17;;;14.60;99.90;;;;;;5083628;28;20496;-83
2021/07/20 01:21:42;;;;;;;11.50;8.87;;;14.60;99.90;;;;;;5103061;28;20441;-82
2021/07/20 01:24:13;;;;;;;10.83;9.50;;;14.60;99.90;;;;;;5083406;28;20923;-81
2021/07/20 01:26:40;;;;;;;11.13;8.90;;;14.60;99.90;;;;;;5090036;28;20449;-82
2021/07/20 01:29:07;;;;;;;10.17;8.17;;;14.60;99.90;;;;;;5098446;28;20761;-80
2021/07/20 01:31:39;;;;;;;12.13;9.43;;;14.60;99.90;;;;;;5060125;28;20419;-81
2021/07/20 01:34:08;;;;;;;10.13;8.60;;;14.60;99.90;;;;;;5091831;28;20423;-80
2021/07/20 01:36:35;;;;;;;12.63;9.73;;;14.60;99.90;;;;;;5078143;28;20436;-83
2021/07/20 01:39:06;;;;;;;11.90;9.63;;;14.60;99.90;;;;;;5081623;28;20419;-83
2021/07/20 01:41:33;;;;;;;12.87;9.50;;;14.60;99.90;;;;;;5095692;28;20422;-83
2021/07/20 01:44:05;;;;;;;13.07;9.60;;;14.50;99.90;;;;;;5075706;28;20908;-79
2021/07/20 01:46:32;;;;;;;15.17;9.73;;;14.50;99.90;;;;;;5079029;28;20439;-81
2021/07/20 01:49:00;;;;;;;13.80;10.37;;;14.50;99.90;;;;;;5096830;28;20422;-79
2021/07/20 01:51:27;;;;;;;11.67;8.27;;;14.50;99.90;;;;;;5096510;28;20890;-79
2021/07/20 01:53:53;;;;;;;11.60;8.30;;;14.40;99.90;;;;;;5079005;28;20557;-79
2021/07/20 01:56:21;;;;;;;11.37;9.20;;;14.40;99.90;;;;;;5095440;28;20458;-79
2021/07/20 01:58:47;;;;;;;12.03;9.40;;;14.40;99.90;;;;;;5076859;28;20454;-80
2021/07/20 02:01:18;;;;;;;12.00;8.70;;;14.40;99.90;;;;;;5096337;28;20395;-81
2021/07/20 02:09:08;;;;;;;12.07;9.23;;;14.50;99.90;;;;;;5091490;28;20422;-80
2021/07/20 02:11:36;;;;;;;11.80;9.13;;;14.40;99.90;;;;;;5069535;28;20510;-82
2021/07/20 02:14:08;;;;;;;11.80;8.93;;;14.30;99.90;;;;;;5075317;28;20474;-83
2021/07/20 02:16:42;;;;;;;10.83;9.27;;;14.30;99.90;;;;;;5072662;28;20984;-83
2021/07/20 02:19:14;;;;;;;10.47;9.33;;;14.40;99.90;;;;;;5093782;28;20423;-82
2021/07/20 02:21:43;;;;;;;10.63;8.33;;;14.50;99.90;;;;;;5096695;28;20433;-80
2021/07/20 02:24:09;;;;;;;11.13;9.13;;;14.50;99.90;;;;;;5095754;28;20418;-81
2021/07/20 02:26:35;;;;;;;12.30;9.60;;;14.40;99.90;;;;;;5061800;28;20426;-83
2021/07/20 02:29:03;;;;;;;13.30;9.50;;;14.30;99.90;;;;;;5078742;28;20794;-82
2021/07/20 02:31:29;;;;;;;11.50;9.17;;;14.20;99.90;;;;;;5071632;28;20538;-82
2021/07/20 02:33:56;;;;;;;12.10;9.27;;;14.20;99.90;;;;;;5078102;28;20466;-81
2021/07/20 02:36:22;;;;;;;12.90;8.80;;;14.10;99.90;;;;;;5066878;28;20500;-83
2021/07/20 02:38:49;;;;;;;11.60;8.80;;;14.10;99.90;;;;;;5055902;28;20419;-80
2021/07/20 02:41:16;;;;;;;12.37;8.97;;;14.00;99.90;;;;;;5078321;28;20419;-81
2021/07/20 02:43:44;;;;;;;11.00;8.87;;;14.00;99.90;;;;;;5070842;28;20432;-80
2021/07/20 02:46:11;;;;;;;14.50;9.17;;;13.90;99.90;;;;;;5093379;28;21228;-81
2021/07/20 02:48:39;;;;;;;13.53;10.63;;;13.90;99.90;;;;;;5095664;28;20414;-80
2021/07/20 02:51:08;;;;;;;12.03;8.67;;;13.90;99.90;;;;;;5096691;28;20419;-81
2021/07/20 02:53:39;;;;;;;12.87;9.47;;;13.90;99.90;;;;;;5095063;28;20982;-82
2021/07/20 02:56:07;;;;;;;13.00;9.50;;;13.80;99.90;;;;;;5094940;28;20454;-81
2021/07/20 02:58:34;;;;;;;12.77;8.60;;;13.80;99.90;;;;;;5092939;28;20422;-82
2021/07/20 03:01:01;;;;;;;15.60;9.80;;;13.80;99.90;;;;;;5094914;28;20394;-80
2021/07/20 03:03:28;;;;;;;13.30;9.37;;;13.70;99.90;;;;;;5085000;28;20419;-82
2021/07/20 03:05:56;;;;;;;12.37;9.10;;;13.80;99.90;;;;;;5056906;28;20506;-80
2021/07/20 03:08:28;;;;;;;16.93;10.87;;;13.80;99.90;;;;;;5057688;28;20411;-80
2021/07/20 03:10:56;;;;;;;10.63;8.77;;;13.80;99.90;;;;;;5093476;28;20487;-81
2021/07/20 03:13:24;;;;;;;13.97;9.17;;;13.80;99.90;;;;;;5088802;28;20454;-81
2021/07/20 03:15:50;;;;;;;12.57;9.60;;;13.80;99.90;;;;;;5092464;28;20431;-83
2021/07/20 03:18:16;;;;;;;13.97;9.50;;;13.80;99.90;;;;;;5057253;28;20549;-81
2021/07/20 03:20:43;;;;;;;15.93;9.77;;;13.80;99.90;;;;;;5093475;28;20425;-82
2021/07/20 03:23:10;;;;;;;12.00;9.17;;;13.90;99.90;;;;;;5079279;28;20493;-80
2021/07/20 03:25:36;;;;;;;12.13;10.10;;;13.80;99.90;;;;;;5083826;28;20541;-83
2021/07/20 03:28:04;;;;;;;14.87;9.93;;;13.80;99.90;;;;;;5094915;28;20439;-82
2021/07/20 03:30:32;;;;;;;10.60;9.00;;;13.80;99.90;;;;;;5065407;28;20437;-82
2021/07/20 03:33:03;;;;;;;13.00;9.37;;;13.80;99.90;;;;;;5097540;28;20511;-83
2021/07/20 03:35:29;;;;;;;14.90;10.07;;;13.90;99.90;;;;;;5083566;28;20441;-81
2021/07/20 03:37:55;;;;;;;14.20;9.73;;;13.80;99.90;;;;;;5098642;28;20572;-81
2021/07/20 03:40:21;;;;;;;15.30;11.67;;;13.80;99.90;;;;;;5074661;28;20455;-81
2021/07/20 03:42:48;;;;;;;13.40;10.10;;;13.80;99.90;;;;;;5073813;28;20188;-82
2021/07/20 03:45:13;;;;;;;15.17;10.93;;;13.80;99.90;;;;;;5048561;28;20550;-83
2021/07/20 03:47:42;;;;;;;13.33;9.67;;;13.80;99.90;;;;;;5080458;28;20498;-82
2021/07/20 03:50:09;;;;;;;14.00;10.53;;;13.80;99.90;;;;;;5061617;28;20620;-83
2021/07/20 03:52:38;;;;;;;15.63;10.77;;;13.80;99.90;;;;;;5090664;28;21354;-82
2021/07/20 03:55:05;;;;;;;14.57;10.43;;;13.80;99.90;;;;;;5073453;28;20515;-81
2021/07/20 03:57:31;;;;;;;13.60;10.67;;;13.80;99.90;;;;;;5058234;28;20420;-83
2021/07/20 04:00:01;;;;;;;14.67;9.90;;;13.80;99.90;;;;;;5094070;28;20458;-83
2021/07/20 04:02:30;;;;;;;13.90;10.57;;;13.70;99.90;;;;;;5068997;28;20453;-83
2021/07/20 04:04:58;;;;;;;14.30;11.00;;;13.70;99.90;;;;;;5056541;28;20800;-83
2021/07/20 04:07:24;;;;;;;14.17;11.00;;;13.70;99.90;;;;;;5089413;28;20517;-82
2021/07/20 04:09:51;;;;;;;14.63;10.43;;;13.70;99.90;;;;;;5073927;28;20422;-84
2021/07/20 04:12:18;;;;;;;15.50;11.13;;;13.80;99.90;;;;;;5058226;28;20487;-83
2021/07/20 04:14:49;;;;;;;16.40;11.50;;;13.90;99.90;;;;;;5084965;28;20458;-84
2021/07/20 04:17:15;;;;;;;16.37;10.13;;;13.90;99.90;;;;;;5076878;28;20433;-80
2021/07/20 04:19:41;;;;;;;16.57;11.87;;;14.00;99.90;;;;;;5066853;28;20431;-80
2021/07/20 04:22:08;;;;;;;18.80;11.70;;;14.00;99.90;;;;;;5073677;28;20430;-82
2021/07/20 04:24:34;;;;;;;17.47;11.00;;;14.10;99.90;;;;;;5073305;28;20959;-81
2021/07/20 04:27:02;;;;;;;18.27;11.10;;;14.10;99.90;;;;;;5073154;28;20422;-82
2021/07/20 04:29:28;;;;;;;16.37;11.70;;;14.10;99.90;;;;;;5075757;28;20486;-81
2021/07/20 04:31:56;;;;;;;18.90;12.23;;;14.10;99.90;;;;;;5076829;28;20421;-83
2021/07/20 04:34:22;;;;;;;17.20;12.23;;;14.10;99.90;;;;;;5041353;28;20434;-83
2021/07/20 04:36:49;;;;;;;17.73;11.33;;;14.20;99.90;;;;;;5079787;28;20415;-81
2021/07/20 04:39:15;;;;;;;19.37;11.73;;;14.30;99.90;;;;;;5077085;28;20450;-81
2021/07/20 04:41:41;;;;;;;18.00;11.40;;;14.20;99.90;;;;;;5076757;28;20514;-82
2021/07/20 04:44:08;;;;;;;18.27;12.10;;;14.30;99.90;;;;;;5070678;28;20495;-79
2021/07/20 04:46:34;;;;;;;15.57;11.63;;;14.30;99.90;;;;;;5056528;28;20995;-81
2021/07/20 04:49:05;;;;;;;16.57;12.13;;;14.30;99.90;;;;;;5060683;28;20552;-80
2021/07/20 04:51:32;;;;;;;18.20;11.87;;;14.30;99.90;;;;;;5085194;28;20478;-83
2021/07/20 04:54:03;;;;;;;20.27;12.80;;;14.40;99.90;;;;;;5096757;28;20449;-80
2021/07/20 04:56:30;;;;;;;16.57;12.03;;;14.50;99.90;;;;;;5096350;28;20981;-82
2021/07/20 04:58:55;;;;;;;18.00;12.40;;;14.50;99.90;;;;;;5078879;28;20488;-80
2021/07/20 05:01:22;;;;;;;19.60;11.97;;;14.60;99.90;;;;;;5080413;28;21106;-82
2021/07/20 05:03:49;;;;;;;22.60;13.47;;;14.60;99.90;;;;;;5068043;28;20276;-80
2021/07/20 05:06:15;;;;;;;20.40;12.17;;;14.70;99.90;;;;;;5078808;28;20462;-83
2021/07/20 05:08:42;;;;;;;17.93;11.50;;;14.70;99.90;;;;;;5060619;28;20423;-83
2021/07/20 05:11:08;;;;;;;15.90;10.70;;;14.80;99.90;;;;;;5097253;28;20411;-82
2021/07/20 05:13:34;;;;;;;22.90;12.50;;;14.80;99.90;;;;;;5079206;28;20481;-82
2021/07/20 05:16:03;;;;;;;22.50;13.60;;;14.90;99.90;;;;;;5063214;28;21111;-83
2021/07/20 05:18:28;;;;;;;17.17;12.40;;;15.00;99.90;;;;;;5052924;28;20450;-81
2021/07/20 05:20:58;;;;;;;15.47;11.00;;;15.10;99.90;;;;;;5062717;28;20419;-82
2021/07/20 05:23:25;;;;;;;15.77;11.20;;;15.10;99.90;;;;;;5079045;28;20192;-80
2021/07/20 05:25:54;;;;;;;23.17;12.80;;;15.20;99.90;;;;;;5091871;28;20446;-82
2021/07/20 05:28:21;;;;;;;16.90;12.43;;;15.20;99.90;;;;;;5090276;28;20414;-83
2021/07/20 05:30:50;;;;;;;17.47;12.20;;;15.20;99.90;;;;;;5073185;28;20414;-81
2021/07/20 05:33:19;;;;;;;22.67;12.97;;;15.20;99.90;;;;;;5055075;28;20471;-83
2021/07/20 05:35:48;;;;;;;18.43;12.97;;;15.30;99.90;;;;;;5097202;28;20793;-82
2021/07/20 05:38:14;;;;;;;16.20;11.53;;;15.40;99.90;;;;;;5079866;28;21085;-82
2021/07/20 05:40:39;;;;;;;19.63;13.80;;;15.40;99.90;;;;;;5058911;28;20419;-80
2021/07/20 05:43:05;;;;;;;18.93;13.50;;;15.40;99.90;;;;;;5073836;28;20225;-80
2021/07/20 05:45:32;;;;;;;17.70;13.40;;;15.50;99.90;;;;;;5078694;28;20239;-82
2021/07/20 05:47:58;;;;;;;18.67;13.97;;;15.50;99.90;;;;;;5091777;28;20275;-79
2021/07/20 05:50:24;;;;;;;20.33;13.33;;;15.50;99.90;;;;;;5079729;28;20901;-81
2021/07/20 05:52:50;;;;;;;18.93;12.87;;;15.60;99.90;;;;;;5097127;28;20454;-82
2021/07/20 05:55:20;;;;;;;17.63;13.60;;;15.60;99.90;;;;;;5075380;28;20294;-81
2021/07/20 05:57:48;;;;;;;22.97;14.80;;;15.50;99.90;;;;;;5090938;28;20417;-83
2021/07/20 06:00:24;;;;;;;17.23;12.90;;;15.50;99.90;;;;;;5077478;28;20464;-81
2021/07/20 06:02:50;;;;;;;18.27;12.37;;;15.60;99.90;;;;;;5091864;28;21313;-81
2021/07/20 06:05:17;;;;;;;18.27;14.67;;;15.60;99.90;;;;;;5078020;28;20469;-81
2021/07/20 06:07:45;;;;;;;19.40;13.17;;;15.60;99.90;;;;;;5075387;28;21022;-82
2021/07/20 06:10:14;;;;;;;20.07;14.27;;;15.70;99.90;;;;;;5078357;28;20414;-81
2021/07/20 06:12:43;;;;;;;18.20;12.63;;;15.90;99.90;;;;;;5077874;28;20477;-82
2021/07/20 06:15:09;;;;;;;19.10;12.43;;;16.00;99.90;;;;;;5077448;28;20588;-82
2021/07/20 06:17:35;;;;;;;17.63;13.30;;;16.20;99.90;;;;;;5072286;28;20419;-82
2021/07/20 06:20:01;;;;;;;16.80;12.67;;;16.30;99.90;;;;;;5058367;28;20955;-81
2021/07/20 06:22:32;;;;;;;15.63;11.60;;;16.50;99.90;;;;;;5095216;28;20207;-80
2021/07/20 06:25:00;;;;;;;22.27;13.60;;;16.60;99.90;;;;;;5077649;28;20442;-81
2021/07/20 06:27:27;;;;;;;16.07;12.97;;;16.70;99.90;;;;;;5047867;28;20419;-80
2021/07/20 06:29:58;;;;;;;17.13;12.73;;;16.90;99.90;;;;;;5094839;28;21009;-79
2021/07/20 06:32:25;;;;;;;19.43;13.13;;;17.00;99.90;;;;;;5078073;28;20565;-82
2021/07/20 06:34:52;;;;;;;16.30;12.60;;;17.10;99.90;;;;;;5094258;28;20438;-82
2021/07/20 06:37:19;;;;;;;17.53;11.97;;;17.00;99.90;;;;;;5072972;28;20905;-81
2021/07/20 06:39:46;;;;;;;19.50;13.53;;;17.10;99.90;;;;;;5077466;28;20762;-81
2021/07/20 06:42:12;;;;;;;19.63;13.33;;;17.10;99.90;;;;;;5096333;28;20427;-81
2021/07/20 06:44:40;;;;;;;22.00;13.77;;;17.20;99.90;;;;;;5090771;28;20485;-81
2021/07/20 06:47:07;;;;;;;18.77;13.17;;;17.30;99.90;;;;;;5080315;28;20414;-83
2021/07/20 06:49:37;;;;;;;18.63;12.57;;;17.50;99.90;;;;;;5094302;28;20929;-82
2021/07/20 06:52:06;;;;;;;21.77;14.00;;;17.60;99.90;;;;;;5094442;28;20421;-83
2021/07/20 06:54:32;;;;;;;16.73;11.50;;;17.80;99.90;;;;;;5076882;28;20453;-83
2021/07/20 06:57:01;;;;;;;15.40;11.80;;;17.80;99.90;;;;;;5094227;28;20517;-83
2021/07/20 06:59:29;;;;;;;17.20;11.23;;;18.00;99.90;;;;;;5093824;28;20189;-82
2021/07/20 07:01:57;;;;;;;17.90;11.90;;;18.20;99.90;;;;;;5060085;28;20430;-82
2021/07/20 07:04:43;;;;;;;17.70;12.60;;;18.30;99.90;;;;;;5075519;28;20777;-80
2021/07/20 07:07:09;;;;;;;17.90;13.43;;;18.30;99.90;;;;;;5076924;28;20484;-83
2021/07/20 07:09:35;;;;;;;16.67;12.43;;;18.40;99.90;;;;;;5070781;28;20423;-80
2021/07/20 07:12:02;;;;;;;15.37;11.33;;;18.40;99.90;;;;;;5088171;28;20984;-82
2021/07/20 07:14:32;;;;;;;17.43;12.40;;;18.50;99.90;;;;;;5094398;28;21065;-81
2021/07/20 07:17:00;;;;;;;13.40;9.80;;;18.50;99.90;;;;;;5094528;28;20422;-82
2021/07/20 07:19:27;;;;;;;13.80;10.87;;;18.50;99.90;;;;;;5060828;28;20427;-80
2021/07/20 07:21:53;;;;;;;17.07;11.60;;;18.50;99.90;;;;;;5078013;28;20446;-82
2021/07/20 07:24:20;;;;;;;17.03;11.43;;;18.50;99.90;;;;;;5094297;28;20418;-82
2021/07/20 07:26:48;;;;;;;12.93;9.27;;;18.50;99.90;;;;;;5088925;28;20403;-81
2021/07/20 07:29:16;;;;;;;13.97;9.40;;;18.50;99.90;;;;;;5095311;28;20434;-80
2021/07/20 07:31:49;;;;;;;10.90;8.97;;;18.60;99.90;;;;;;5093477;28;20422;-82
2021/07/20 07:34:15;;;;;;;11.27;7.73;;;18.60;99.90;;;;;;5084368;28;20484;-80
2021/07/20 07:36:46;;;;;;;11.27;8.03;;;18.70;99.90;;;;;;5072580;28;20411;-80
2021/07/20 07:39:15;;;;;;;11.87;8.53;;;18.80;99.90;;;;;;5071143;28;20458;-80
2021/07/20 07:41:44;;;;;;;9.67;7.57;;;18.90;99.90;;;;;;5076917;28;21077;-80
2021/07/20 07:44:13;;;;;;;11.83;7.53;;;19.00;99.90;;;;;;5041405;28;20423;-80
2021/07/20 07:46:40;;;;;;;10.93;7.70;;;19.10;99.90;;;;;;5073067;28;20427;-81
2021/07/20 07:49:08;;;;;;;8.40;7.07;;;19.10;99.90;;;;;;5069659;28;20977;-81
2021/07/20 07:51:34;;;;;;;11.40;7.47;;;19.00;99.90;;;;;;5093918;28;20415;-82
2021/07/20 07:54:03;;;;;;;12.17;7.00;;;18.90;99.90;;;;;;5094431;28;20787;-81
2021/07/20 07:56:30;;;;;;;9.23;6.10;;;18.90;99.90;;;;;;5094033;28;20450;-79
2021/07/20 07:58:58;;;;;;;10.40;7.47;;;19.00;99.90;;;;;;5077366;28;20418;-82
2021/07/20 08:01:25;;;;;;;10.47;7.43;;;19.00;99.90;;;;;;5070071;28;20435;-83
2021/07/20 08:03:54;;;;;;;10.80;7.17;;;19.10;99.90;;;;;;5060392;28;20429;-84
2021/07/20 08:06:21;;;;;;;9.23;7.20;;;19.20;99.90;;;;;;5076820;28;20529;-83
2021/07/20 08:08:52;;;;;;;11.20;7.80;;;19.20;99.90;;;;;;5088735;28;20430;-81
2021/07/20 08:11:22;;;;;;;11.07;7.63;;;19.30;99.90;;;;;;5049236;28;20426;-81
2021/07/20 08:13:48;;;;;;;10.93;8.17;;;19.20;99.90;;;;;;5076650;28;20461;-81
2021/07/20 08:16:15;;;;;;;10.17;7.90;;;19.30;99.90;;;;;;5071546;28;20827;-79
2021/07/20 08:18:42;;;;;;;12.00;8.37;;;19.30;99.90;;;;;;5051507;28;20427;-83
2021/07/20 08:21:08;;;;;;;11.33;8.53;;;19.30;99.90;;;;;;5081212;28;20418;-82
2021/07/20 08:23:36;;;;;;;12.70;7.80;;;19.20;99.90;;;;;;5099068;28;20505;-82
2021/07/20 08:26:07;;;;;;;9.77;8.40;;;19.10;99.90;;;;;;5064191;28;20508;-81
2021/07/20 08:28:41;;;;;;;9.00;7.63;;;19.10;99.90;;;;;;5094898;28;20462;-82
2021/07/20 08:31:08;;;;;;;12.73;6.50;;;19.20;99.90;;;;;;5098491;28;20788;-81
2021/07/20 08:33:36;;;;;;;11.63;7.23;;;19.20;99.90;;;;;;5098979;28;20465;-81
2021/07/20 08:36:04;;;;;;;12.37;7.57;;;19.10;99.90;;;;;;5065711;28;20496;-82
2021/07/20 08:38:34;;;;;;;9.23;6.87;;;19.10;99.90;;;;;;5099402;28;20429;-83
2021/07/20 08:41:08;;;;;;;7.87;6.30;;;19.20;99.90;;;;;;5062626;28;20426;-83
2021/07/20 08:44:04;;;;;;;9.57;7.10;;;19.20;99.90;;;;;;5097739;28;20479;-84
2021/07/20 08:47:00;;;;;;;11.10;7.57;;;19.10;99.90;;;;;;5080086;28;20465;-83
2021/07/20 08:50:07;;;;;;;8.33;6.87;;;19.00;99.90;;;;;;5091914;28;20430;-84
2021/07/20 08:52:39;;;;;;;9.37;7.00;;;19.00;99.90;;;;;;5008076;28;20545;-83
2021/07/20 08:55:18;;;;;;;7.97;6.40;;;19.00;99.90;;;;;;5072810;28;20982;-82
2021/07/20 08:57:47;;;;;;;9.27;7.10;;;19.00;99.90;;;;;;5080521;28;20422;-83
2021/07/20 09:00:16;;;;;;;9.10;7.40;;;19.10;99.90;;;;;;5097180;28;20427;-83
2021/07/20 09:03:19;;;;;;;11.20;7.33;;;19.00;99.90;;;;;;5110895;28;20422;-83
2021/07/20 09:06:03;;;;;;;11.77;7.77;;;18.90;99.90;;;;;;5092146;28;20430;-83
2021/07/20 09:09:00;;;;;;;9.27;7.57;;;18.90;99.90;;;;;;5097409;28;20828;-83
2021/07/20 09:11:43;;;;;;;13.53;7.50;;;18.80;99.90;;;;;;5084857;28;20411;-81
2021/07/20 09:14:35;;;;;;;9.20;7.27;;;18.80;99.90;;;;;;5080765;28;20461;-83
2021/07/20 09:17:17;;;;;;;11.33;7.63;;;18.80;99.90;;;;;;5079650;28;20426;-82
2021/07/20 09:19:46;;;;;;;14.50;8.10;;;19.00;99.90;;;;;;5091590;28;20422;-81
2021/07/20 09:22:18;;;;;;;9.53;8.20;;;19.20;99.90;;;;;;5079520;28;20856;-83
2021/07/20 09:24:54;;;;;;;9.53;7.83;;;19.40;99.90;;;;;;5059989;28;20427;-83
2021/07/20 09:27:39;;;;;;;10.07;8.53;;;19.80;99.90;;;;;;5077401;28;20415;-82
2021/07/20 09:30:15;;;;;;;10.30;7.90;;;20.20;99.90;;;;;;5092391;28;20406;-82
2021/07/20 09:33:15;;;;;;;10.53;7.87;;;20.40;99.90;;;;;;5096122;28;20462;-81
2021/07/20 09:35:49;;;;;;;10.30;8.27;;;20.60;99.90;;;;;;5050898;28;20488;-82
2021/07/20 09:38:14;;;;;;;10.37;7.83;;;20.90;99.90;;;;;;5096922;28;20418;-83
2021/07/20 09:40:47;;;;;;;10.30;7.57;;;21.10;99.90;;;;;;5097092;28;20418;-82
2021/07/20 09:43:41;;;;;;;8.90;8.00;;;21.20;99.90;;;;;;5097871;28;20192;-82
2021/07/20 09:46:11;;;;;;;10.20;8.57;;;21.40;99.90;;;;;;5097877;28;20525;-82
2021/07/20 09:49:00;;;;;;;10.73;7.97;;;21.30;99.90;;;;;;5105237;28;20433;-82
2021/07/20 09:51:35;;;;;;;11.07;9.20;;;21.10;99.90;;;;;;5095392;28;20423;-81
2021/07/20 09:54:38;;;;;;;9.30;8.23;;;20.80;99.90;;;;;;5097984;28;20967;-83
2021/07/20 09:57:27;;;;;;;11.20;8.30;;;20.50;99.90;;;;;;5088068;28;20450;-83
2021/07/20 10:00:09;;;;;;;10.23;8.70;;;20.50;99.90;;;;;;5099849;28;20411;-83
2021/07/20 10:02:51;;;;;;;12.83;8.77;;;20.70;99.90;;;;;;5081996;28;20427;-83
2021/07/20 10:05:25;;;;;;;11.77;9.17;;;20.90;99.90;;;;;;5095909;28;20494;-80
2021/07/20 10:07:59;;;;;;;10.60;9.50;;;21.20;99.90;;;;;;5076488;28;20967;-81
2021/07/20 10:10:42;;;;;;;11.47;8.80;;;21.40;99.90;;;;;;5091163;28;20429;-80
2021/07/20 10:13:20;;;;;;;12.50;9.43;;;21.50;99.90;;;;;;5085504;28;21138;-82
2021/07/20 10:16:05;;;;;;;10.80;8.60;;;21.70;99.90;;;;;;5095932;28;20592;-81
2021/07/20 10:18:50;;;;;;;10.37;8.80;;;21.80;99.90;;;;;;5094866;28;20415;-80
2021/07/20 10:21:20;;;;;;;10.13;9.10;;;21.70;99.20;;;;;;5074124;28;21172;-82
2021/07/20 10:23:55;;;;;;;10.03;8.87;;;21.80;99.90;;;;;;5079575;28;20831;-82
2021/07/20 10:26:43;;;;;;;12.47;8.70;;;21.90;99.90;;;;;;5087917;28;20431;-82
2021/07/20 10:29:43;;;;;;;10.17;9.17;;;22.00;99.90;;;;;;5084853;28;20418;-81
2021/07/20 10:32:20;;;;;;;9.93;8.60;;;22.10;99.40;;;;;;5050311;28;21755;-81
2021/07/20 10:34:53;;;;;;;11.20;9.23;;;22.20;99.90;;;;;;5078605;28;20736;-84
2021/07/20 10:37:23;;;;;;;9.50;8.50;;;22.20;99.90;;;;;;5078940;28;20403;-84
2021/07/20 10:40:09;;;;;;;10.83;9.20;;;22.00;99.90;;;;;;5097294;28;20907;-83
2021/07/20 10:42:43;;;;;;;9.50;8.50;;;21.80;99.90;;;;;;5085385;28;20419;-83
2021/07/20 10:45:12;;;;;;;10.27;9.00;;;21.70;99.90;;;;;;5077440;28;20796;-82
2021/07/20 10:47:45;;;;;;;10.57;8.40;;;21.50;99.90;;;;;;5070469;28;20484;-83
2021/07/20 10:50:17;;;;;;;9.73;8.70;;;21.30;99.90;;;;;;5092953;28;20456;-84
2021/07/20 10:53:06;;;;;;;10.10;9.03;;;21.20;99.90;;;;;;5094694;28;20553;-83
2021/07/20 10:55:32;;;;;;;12.03;8.67;;;21.40;99.90;;;;;;5095681;28;20457;-82
2021/07/20 10:58:18;;;;;;;10.03;8.67;;;21.60;99.20;;;;;;5094122;28;20410;-83
2021/07/20 11:01:03;;;;;;;9.03;8.07;;;21.80;98.80;;;;;;5093839;28;20176;-84
2021/07/20 11:03:36;;;;;;;10.63;8.87;;;21.90;99.90;;;;;;5095431;28;20410;-84
2021/07/20 11:06:04;;;;;;;9.03;8.07;;;22.10;99.90;;;;;;5087161;28;20838;-81
2021/07/20 11:08:33;;;;;;;10.77;8.70;;;22.30;99.90;;;;;;5077290;28;20417;-83
2021/07/20 11:11:00;;;;;;;10.80;8.80;;;22.40;99.30;;;;;;5094407;28;20453;-84
2021/07/20 11:13:33;;;;;;;10.27;7.80;;;22.50;99.20;;;;;;5056662;28;20569;-81
2021/07/20 11:16:05;;;;;;;9.70;7.23;;;22.60;99.30;;;;;;5076377;28;20525;-82
2021/07/20 11:18:34;;;;;;;8.83;7.87;;;22.70;98.70;;;;;;5060996;28;20560;-81
2021/07/20 11:21:02;;;;;;;10.50;8.30;;;22.60;98.40;;;;;;5074474;28;20431;-84
2021/07/20 11:23:33;;;;;;;11.73;7.70;;;22.50;98.70;;;;;;5078879;28;20422;-84
2021/07/20 11:25:59;;;;;;;9.87;8.83;;;22.50;99.20;;;;;;5079165;28;20438;-82
2021/07/20 11:28:26;;;;;;;8.97;7.63;;;22.50;99.00;;;;;;5077443;28;20788;-81
2021/07/20 11:30:55;;;;;;;9.93;8.50;;;22.40;99.50;;;;;;5077711;28;20418;-84
2021/07/20 11:33:34;;;;;;;10.53;8.13;;;22.40;99.90;;;;;;5078153;28;20463;-82
2021/07/20 11:36:01;;;;;;;8.83;7.57;;;22.70;99.80;;;;;;5096194;28;20496;-84
2021/07/20 11:38:30;;;;;;;11.10;8.30;;;22.80;99.30;;;;;;5075219;28;20423;-84
2021/07/20 11:41:06;;;;;;;9.70;7.87;;;22.90;97.30;;;;;;5090254;28;20852;-84
2021/07/20 11:43:54;;;;;;;13.83;8.53;;;22.90;97.30;;;;;;5078709;28;20422;-83
2021/07/20 11:46:24;;;;;;;8.30;7.43;;;22.70;97.80;;;;;;5087540;28;20463;-84
2021/07/20 11:48:57;;;;;;;9.50;7.63;;;22.40;98.00;;;;;;5089474;28;20912;-81
2021/07/20 11:51:28;;;;;;;9.33;7.90;;;22.20;98.50;;;;;;5058101;28;20423;-84
2021/07/20 11:54:20;;;;;;;8.70;7.77;;;22.10;98.20;;;;;;5082927;28;20945;-84
2021/07/20 11:57:15;;;;;;;8.87;7.50;;;22.00;98.70;;;;;;5094655;28;20441;-81
2021/07/20 11:59:40;;;;;;;9.50;8.00;;;22.00;98.90;;;;;;5094974;28;20789;-82
2021/07/20 12:02:47;;;;;;;10.33;8.07;;;22.20;98.10;;;;;;5076940;28;20528;-83
2021/07/20 12:05:57;;;;;;;10.80;7.70;;;22.40;98.00;;;;;;5100113;28;20212;-82
2021/07/20 12:08:42;;;;;;;11.23;7.87;;;22.50;96.50;;;;;;5083730;28;20915;-83
2021/07/20 12:11:16;;;;;;;10.43;8.00;;;22.60;97.40;;;;;;5077565;28;21068;-84
2021/07/20 12:13:43;;;;;;;7.23;6.20;;;22.70;96.20;;;;;;5093928;28;20445;-84
2021/07/20 12:16:14;;;;;;;10.00;7.90;;;22.60;96.30;;;;;;5076378;28;20427;-81
2021/07/20 12:18:47;;;;;;;9.43;7.70;;;22.60;97.00;;;;;;5073329;28;20415;-82
2021/07/20 12:21:18;;;;;;;8.93;7.47;;;22.40;97.50;;;;;;5082431;28;20406;-82
2021/07/20 12:23:44;;;;;;;10.30;7.20;;;22.30;97.90;;;;;;5075545;28;20518;-82
2021/07/20 12:26:12;;;;;;;13.43;8.90;;;22.30;97.30;;;;;;5059942;28;20971;-82
2021/07/20 12:28:42;;;;;;;8.70;7.80;;;22.50;98.20;;;;;;5076448;28;20969;-79
2021/07/20 12:31:09;;;;;;;10.33;7.40;;;22.70;98.10;;;;;;5093749;28;20544;-81
2021/07/20 12:33:34;;;;;;;10.37;7.73;;;22.80;96.50;;;;;;5092796;28;20854;-82
2021/07/20 12:36:01;;;;;;;10.27;8.20;;;22.90;96.20;;;;;;5074295;28;20435;-80
2021/07/20 12:38:33;;;;;;;8.70;7.03;;;22.90;96.40;;;;;;5054427;28;20212;-81
2021/07/20 12:41:11;;;;;;;9.07;7.30;;;23.00;96.00;;;;;;5042816;28;20796;-82
2021/07/20 12:43:45;;;;;;;10.40;7.83;;;23.00;95.40;;;;;;5043096;28;20446;-82
2021/07/20 12:46:18;;;;;;;9.73;7.10;;;23.00;95.70;;;;;;5079826;28;20439;-81
2021/07/20 12:48:53;;;;;;;12.60;6.93;;;22.90;95.20;;;;;;5087540;28;20431;-81
2021/07/20 12:51:21;;;;;;;8.47;7.03;;;22.80;95.40;;;;;;5090317;28;20417;-83
2021/07/20 12:53:50;;;;;;;8.90;6.87;;;22.80;97.50;;;;;;5073921;28;20455;-82
2021/07/20 12:56:24;;;;;;;7.37;6.27;;;22.80;97.20;;;;;;5075955;28;20631;-83
2021/07/20 12:58:58;;;;;;;7.40;6.30;;;22.80;97.50;;;;;;5080386;28;20924;-80